createdAt,value
2019-02-27T00:00:20.193Z,86.08
2019-02-27T00:02:48.596Z,86.45
2019-02-27T00:05:16.996Z,92.62
2019-02-27T00:07:45.674Z,86.05
2019-02-27T00:10:14.357Z,89.67
2019-02-27T00:12:42.759Z,91.75
2019-02-27T00:15:11.257Z,83.40
2019-02-27T00:17:39.654Z,89.92
2019-02-27T00:20:08.201Z,86.28
2019-02-27T00:22:36.609Z,87.55
2019-02-27T00:25:05.572Z,93.50
2019-02-27T00:27:33.984Z,92.55
2019-02-27T00:30:05.026Z,86.02
2019-02-27T00:32:32.952Z,83.37
2019-02-27T00:35:01.350Z,85.32
2019-02-27T00:37:30.115Z,80.85
2019-02-27T00:39:58.506Z,85.05
2019-02-27T00:42:33.468Z,81.75
2019-02-27T00:44:57.605Z,94.45
2019-02-27T00:47:26.007Z,84.07
2019-02-27T00:49:54.423Z,87.55
2019-02-27T00:52:22.829Z,83.35
2019-02-27T00:54:54.194Z,88.78
2019-02-27T00:57:22.891Z,67.90
2019-02-27T00:59:51.564Z,83.00
2019-02-27T01:02:20.778Z,85.07
2019-02-27T01:04:49.546Z,85.40
2019-02-27T01:07:20.682Z,84.83
2019-02-27T01:09:48.477Z,82.65
2019-02-27T01:12:16.870Z,84.60
2019-02-27T01:14:45.290Z,85.12
2019-02-27T01:17:13.703Z,87.33
2019-02-27T01:19:43.020Z,86.15
2019-02-27T01:22:11.477Z,85.53
2019-02-27T01:24:39.887Z,77.75
2019-02-27T01:27:08.284Z,82.60
2019-02-27T01:29:36.701Z,75.62
2019-02-27T01:32:05.171Z,84.30
2019-02-27T01:34:33.586Z,83.10
2019-02-27T01:37:02.270Z,80.20
2019-02-27T01:39:30.674Z,87.60
2019-02-27T01:41:59.435Z,87.20
2019-02-27T01:44:28.123Z,86.15
2019-02-27T01:47:01.869Z,84.67
2019-02-27T01:49:26.662Z,82.08
2019-02-27T01:51:55.061Z,82.92
2019-02-27T01:54:23.473Z,84.77
2019-02-27T01:56:52.160Z,77.82
2019-02-27T01:59:20.569Z,78.95
2019-02-27T02:01:48.973Z,73.95
2019-02-27T02:04:19.980Z,80.90
2019-02-27T02:06:47.517Z,73.52
2019-02-27T02:09:33.718Z,74.25
2019-02-27T02:12:08.808Z,77.80
2019-02-27T02:15:02.216Z,78.80
2019-02-27T02:17:50.093Z,81.22
2019-02-27T02:20:40.917Z,78.15
2019-02-27T02:23:14.931Z,79.35
2019-02-27T02:26:05.833Z,78.12
2019-02-27T02:28:49.292Z,81.57
2019-02-27T02:31:26.244Z,80.50
2019-02-27T02:34:12.775Z,78.72
2019-02-27T02:36:50.179Z,78.57
2019-02-27T02:39:24.258Z,76.72
2019-02-27T02:42:12.453Z,78.67
2019-02-27T02:44:49.434Z,80.45
2019-02-27T02:47:32.672Z,81.85
2019-02-27T02:50:17.426Z,81.47
2019-02-27T02:52:45.607Z,83.78
2019-02-27T02:55:39.900Z,75.60
2019-02-27T02:58:19.931Z,71.25
2019-02-27T03:01:00.210Z,72.87
2019-02-27T03:03:43.670Z,81.20
2019-02-27T03:06:17.957Z,77.82
2019-02-27T03:08:54.951Z,75.65
2019-02-27T03:11:37.736Z,76.17
2019-02-27T03:14:09.191Z,81.50
2019-02-27T03:17:17.917Z,77.47
2019-02-27T03:19:56.932Z,71.10
2019-02-27T03:22:41.653Z,76.60
2019-02-27T03:25:19.577Z,76.25
2019-02-27T03:28:07.442Z,78.42
2019-02-27T03:30:44.505Z,75.72
2019-02-27T03:33:24.684Z,72.15
2019-02-27T03:36:14.867Z,77.55
2019-02-27T03:39:10.673Z,72.03
2019-02-27T03:42:02.032Z,70.40
2019-02-27T03:44:39.600Z,76.92
2019-02-27T03:47:26.317Z,73.45
2019-02-27T03:50:23.491Z,67.17
2019-02-27T03:53:00.983Z,73.22
2019-02-27T03:55:44.123Z,77.00
2019-02-27T03:58:21.467Z,77.27
2019-02-27T04:01:08.037Z,72.80
2019-02-27T04:03:45.278Z,74.15
2019-02-27T04:06:34.747Z,70.15
2019-02-27T04:09:04.807Z,76.65
2019-02-27T04:11:33.205Z,76.17
2019-02-27T04:14:05.058Z,74.92
2019-02-27T04:16:32.458Z,71.92
2019-02-27T04:19:04.568Z,73.57
2019-02-27T04:21:31.257Z,73.78
2019-02-27T04:23:59.673Z,78.17
2019-02-27T04:26:28.425Z,68.15
2019-02-27T04:28:57.116Z,71.17
2019-02-27T04:31:29.622Z,69.35
2019-02-27T04:33:59.844Z,74.40
2019-02-27T04:36:25.805Z,75.08
2019-02-27T04:38:54.212Z,76.70
2019-02-27T04:41:22.629Z,71.62
2019-02-27T04:43:51.025Z,70.03
2019-02-27T04:46:21.706Z,69.90
2019-02-27T04:48:50.179Z,75.85
2019-02-27T04:51:18.586Z,74.20
2019-02-27T04:53:46.988Z,73.15
2019-02-27T04:56:15.406Z,72.50
2019-02-27T04:58:43.806Z,81.95
2019-02-27T05:01:12.493Z,79.40
2019-02-27T05:03:40.893Z,77.45
2019-02-27T05:06:09.303Z,79.60
2019-02-27T05:08:38.025Z,82.67
2019-02-27T05:11:06.727Z,77.72
2019-02-27T05:13:35.126Z,81.75
2019-02-27T05:16:03.541Z,77.08
2019-02-27T05:18:32.261Z,79.05
2019-02-27T05:21:00.714Z,73.47
2019-02-27T05:23:30.930Z,75.80
2019-02-27T05:25:59.856Z,88.62
2019-02-27T05:28:28.543Z,78.25
2019-02-27T05:30:57.224Z,83.67
2019-02-27T05:33:25.632Z,79.05
2019-02-27T05:35:57.023Z,83.87
2019-02-27T05:38:24.409Z,83.50
2019-02-27T05:40:53.095Z,83.87
2019-02-27T05:43:21.777Z,80.62
2019-02-27T05:45:50.203Z,81.45
2019-02-27T05:48:20.018Z,77.53
2019-02-27T05:50:48.738Z,80.40
2019-02-27T05:53:17.149Z,80.07
2019-02-27T05:55:45.568Z,86.22
2019-02-27T05:58:14.305Z,77.50
2019-02-27T06:00:42.704Z,89.62
2019-02-27T06:03:11.124Z,82.57
2019-02-27T06:05:39.528Z,81.20
2019-02-27T06:08:07.944Z,83.30
2019-02-27T06:10:36.348Z,85.12
2019-02-27T06:13:04.768Z,79.05
2019-02-27T06:15:33.167Z,81.57
2019-02-27T06:18:01.954Z,83.37
2019-02-27T06:20:30.353Z,75.25
2019-02-27T06:22:58.767Z,79.77
2019-02-27T06:25:27.165Z,77.53
2019-02-27T06:27:55.873Z,76.33
2019-02-27T06:30:24.281Z,81.42
2019-02-27T06:32:52.703Z,82.65
2019-02-27T06:35:21.426Z,79.03
2019-02-27T06:37:50.744Z,76.92
2019-02-27T06:40:20.139Z,89.22
2019-02-27T06:42:51.329Z,89.47
2019-02-27T06:45:18.924Z,74.70
2019-02-27T06:47:47.340Z,74.17
2019-02-27T06:50:16.690Z,80.20
2019-02-27T06:52:45.509Z,81.20
2019-02-27T06:55:14.842Z,88.42
2019-02-27T06:57:43.326Z,71.50
2019-02-27T07:00:14.846Z,76.82
2019-02-27T07:02:43.301Z,85.42
2019-02-27T07:05:13.490Z,74.20
2019-02-27T07:07:42.144Z,82.35
2019-02-27T07:10:13.677Z,81.75
2019-02-27T07:12:42.091Z,88.60
2019-02-27T07:15:21.039Z,82.37
2019-02-27T07:17:49.876Z,77.72
2019-02-27T07:20:18.348Z,80.03
2019-02-27T07:22:46.841Z,75.57
2019-02-27T07:25:16.686Z,71.40
2019-02-27T07:27:45.101Z,80.97
2019-02-27T07:30:18.028Z,66.97
2019-02-27T07:32:46.435Z,75.00
2019-02-27T07:35:15.686Z,69.32
2019-02-27T07:37:47.170Z,69.45
2019-02-27T07:40:18.546Z,65.67
2019-02-27T07:42:46.952Z,67.60
2019-02-27T07:45:18.045Z,66.92
2019-02-27T07:47:46.806Z,79.43
2019-02-27T07:50:17.324Z,64.40
2019-02-27T07:52:45.822Z,67.40
2019-02-27T07:55:21.929Z,64.42
2019-02-27T07:57:48.581Z,62.80
2019-02-27T08:00:23.572Z,64.87
2019-02-27T08:02:51.968Z,57.60
2019-02-27T08:05:20.719Z,57.00
2019-02-27T08:07:49.926Z,54.85
2019-02-27T08:10:20.594Z,55.43
2019-02-27T08:12:48.994Z,58.50
2019-02-27T08:15:18.764Z,54.55
2019-02-27T08:17:47.281Z,52.08
2019-02-27T08:20:20.111Z,51.83
2019-02-27T08:22:46.757Z,46.28
2019-02-27T08:25:16.348Z,49.90
2019-02-27T08:27:44.833Z,47.08
2019-02-27T08:30:24.098Z,47.38
2019-02-27T08:32:52.871Z,46.60
2019-02-27T08:35:21.543Z,45.20
2019-02-27T08:37:50.240Z,46.33
2019-02-27T08:40:18.653Z,46.42
2019-02-27T08:42:47.301Z,44.50
2019-02-27T08:45:20.125Z,44.63
2019-02-27T08:47:48.379Z,44.53
